createdAt,value
2017-11-10T00:00:26.131Z,34.10
2017-11-10T00:02:53.684Z,41.63
2017-11-10T00:05:21.273Z,36.90
2017-11-10T00:07:48.828Z,78.10
2017-11-10T00:10:16.382Z,133.20
2017-11-10T00:12:43.968Z,127.67
2017-11-10T00:15:11.528Z,106.53
2017-11-10T00:17:39.075Z,88.23
2017-11-10T00:20:06.678Z,81.90
2017-11-10T00:22:34.227Z,80.80
2017-11-10T00:25:01.771Z,90.47
2017-11-10T00:27:29.358Z,98.57
2017-11-10T00:29:56.919Z,83.43
2017-11-10T00:32:24.476Z,95.43
2017-11-10T00:34:52.060Z,76.77
2017-11-10T00:37:19.619Z,68.77
2017-11-10T00:39:47.179Z,77.77
2017-11-10T00:42:14.764Z,66.07
2017-11-10T00:44:42.319Z,70.13
2017-11-10T00:47:10.018Z,66.03
2017-11-10T00:49:37.685Z,74.93
2017-11-10T00:52:05.316Z,66.77
2017-11-10T00:54:32.929Z,68.73
2017-11-10T00:57:00.728Z,59.10
2017-11-10T00:59:28.413Z,58.13
2017-11-10T01:01:56.034Z,56.37
2017-11-10T01:04:23.707Z,56.10
2017-11-10T01:06:51.328Z,76.23
2017-11-10T01:09:18.957Z,59.00
2017-11-10T01:11:46.620Z,59.57
2017-11-10T01:14:14.235Z,49.47
2017-11-10T01:16:41.908Z,52.13
2017-11-10T01:19:09.591Z,44.90
2017-11-10T01:21:37.291Z,42.60
2017-11-10T01:24:04.915Z,49.23
2017-11-10T01:26:32.587Z,53.43
2017-11-10T01:29:00.276Z,49.17
2017-11-10T01:31:27.893Z,52.27
2017-11-10T01:33:55.560Z,42.67
2017-11-10T01:36:23.181Z,49.53
2017-11-10T01:38:50.864Z,55.77
2017-11-10T01:41:18.543Z,58.40
2017-11-10T01:43:46.181Z,57.10
2017-11-10T01:46:13.793Z,49.03
2017-11-10T01:48:43.323Z,49.03
2017-11-10T01:51:10.944Z,58.17
2017-11-10T01:53:38.584Z,57.20
2017-11-10T01:56:06.274Z,50.10
2017-11-10T01:58:33.969Z,41.80
2017-11-10T02:01:01.698Z,41.57
2017-11-10T02:03:29.441Z,46.20
2017-11-10T02:05:57.124Z,44.07
2017-11-10T02:08:24.818Z,37.50
2017-11-10T02:10:52.494Z,45.20
2017-11-10T02:13:20.186Z,57.43
2017-11-10T02:15:47.812Z,50.27
2017-11-10T02:18:15.492Z,57.37
2017-11-10T02:20:43.150Z,56.40
2017-11-10T02:23:10.775Z,55.20
2017-11-10T02:25:38.522Z,50.67
2017-11-10T02:28:06.172Z,50.23
2017-11-10T02:30:33.812Z,56.33
2017-11-10T02:33:01.512Z,65.10
2017-11-10T02:35:29.253Z,59.33
2017-11-10T02:37:56.882Z,61.30
2017-11-10T02:40:24.688Z,58.33
2017-11-10T02:42:52.373Z,54.17
2017-11-10T02:45:20.009Z,50.67
2017-11-10T02:47:47.685Z,52.17
2017-11-10T02:50:15.325Z,52.07
2017-11-10T02:52:42.974Z,53.57
2017-11-10T02:55:10.720Z,157.47
2017-11-10T02:57:38.397Z,67.97
2017-11-10T03:00:06.025Z,68.00
2017-11-10T03:02:33.700Z,88.40
2017-11-10T03:05:01.310Z,61.37
2017-11-10T03:07:29.013Z,61.70
2017-11-10T03:09:56.777Z,66.30
2017-11-10T03:12:24.421Z,64.73
2017-11-10T03:14:52.123Z,61.57
2017-11-10T03:17:19.808Z,50.27
2017-11-10T03:19:47.494Z,52.70
2017-11-10T03:22:15.111Z,51.83
2017-11-10T03:24:42.767Z,53.80
2017-11-10T03:27:10.419Z,53.27
2017-11-10T03:29:38.120Z,50.33
2017-11-10T03:32:05.813Z,53.40
2017-11-10T03:34:33.436Z,63.33
2017-11-10T03:37:01.059Z,65.47
2017-11-10T03:39:28.743Z,78.63
2017-11-10T03:41:56.380Z,76.43
2017-11-10T03:44:24.022Z,73.17
2017-11-10T03:46:51.726Z,86.90
2017-11-10T03:49:19.392Z,75.23
2017-11-10T03:51:47.081Z,69.83
2017-11-10T03:54:14.747Z,80.87
2017-11-10T03:56:42.387Z,66.63
2017-11-10T03:59:10.011Z,58.60
2017-11-10T04:01:37.693Z,60.90
2017-11-10T04:04:05.323Z,61.83
2017-11-10T04:06:32.948Z,64.97
2017-11-10T04:09:00.628Z,70.23
2017-11-10T04:11:28.285Z,83.43
2017-11-10T04:13:55.916Z,52.30
2017-11-10T04:16:23.705Z,46.70
2017-11-10T04:18:51.398Z,49.30
2017-11-10T04:21:19.021Z,44.90
2017-11-10T04:23:46.754Z,51.10
2017-11-10T04:26:14.376Z,50.40
2017-11-10T04:28:42.080Z,48.13
2017-11-10T04:31:09.763Z,57.03
2017-11-10T04:33:37.423Z,55.53
2017-11-10T04:36:05.156Z,57.17
2017-11-10T04:38:33.050Z,62.97
2017-11-10T04:41:00.728Z,58.57
2017-11-10T04:43:28.409Z,64.57
2017-11-10T04:45:56.108Z,61.67
2017-11-10T04:48:23.732Z,56.27
2017-11-10T04:50:51.374Z,66.70
2017-11-10T04:53:19.056Z,63.63
2017-11-10T04:55:46.750Z,58.90
2017-11-10T04:58:14.380Z,66.80
2017-11-10T05:00:42.048Z,71.60
2017-11-10T05:03:09.675Z,59.83
2017-11-10T05:05:37.293Z,65.50
2017-11-10T05:08:05.037Z,60.50
2017-11-10T05:10:32.677Z,60.77
2017-11-10T05:13:00.297Z,66.33
2017-11-10T05:15:28.029Z,69.17
2017-11-10T05:17:55.706Z,57.00
2017-11-10T05:20:23.339Z,59.20
2017-11-10T05:22:51.044Z,57.23
2017-11-10T05:25:18.731Z,59.00
2017-11-10T05:27:46.421Z,61.63
2017-11-10T05:30:14.220Z,61.17
2017-11-10T05:32:41.959Z,58.60
2017-11-10T05:35:09.648Z,57.97
2017-11-10T05:37:37.413Z,64.13
2017-11-10T05:40:05.089Z,57.50
2017-11-10T05:42:32.767Z,60.38
2017-11-10T05:45:00.599Z,73.83
2017-11-10T05:47:28.266Z,54.67
2017-11-10T05:49:55.948Z,56.67
2017-11-10T05:52:23.737Z,55.47
2017-11-10T05:54:51.480Z,60.03
2017-11-10T05:57:19.167Z,68.73
2017-11-10T05:59:46.893Z,65.20
2017-11-10T06:02:14.631Z,64.70
2017-11-10T06:04:42.350Z,64.17
2017-11-10T06:07:10.025Z,67.50
2017-11-10T06:09:37.652Z,58.90
2017-11-10T06:12:05.341Z,62.70
2017-11-10T06:14:33.085Z,60.93
2017-11-10T06:17:00.774Z,52.27
2017-11-10T06:19:28.388Z,44.90
2017-11-10T06:21:56.149Z,34.00
2017-11-10T06:24:23.781Z,35.33
2017-11-10T06:26:51.408Z,30.53
2017-11-10T06:29:19.086Z,33.77
2017-11-10T06:31:46.705Z,22.57
2017-11-10T06:34:14.332Z,23.87
2017-11-10T06:36:42.008Z,32.37
2017-11-10T06:39:09.642Z,27.40
2017-11-10T06:41:37.337Z,30.03
2017-11-10T06:44:05.045Z,34.60
2017-11-10T06:46:32.676Z,26.07
2017-11-10T06:49:01.281Z,31.23
2017-11-10T06:51:28.954Z,45.17
2017-11-10T06:53:56.636Z,39.90
2017-11-10T06:56:24.317Z,31.60
2017-11-10T06:58:51.990Z,32.97
2017-11-10T07:01:19.612Z,27.40
2017-11-10T07:03:47.272Z,25.40
2017-11-10T07:06:14.969Z,30.90
2017-11-10T07:08:42.596Z,27.10
2017-11-10T07:11:10.281Z,24.83
2017-11-10T07:13:38.018Z,27.50
2017-11-10T07:16:05.700Z,27.30
2017-11-10T07:18:33.325Z,31.97
2017-11-10T07:21:01.000Z,27.73
2017-11-10T07:23:28.617Z,24.93
2017-11-10T07:25:56.677Z,31.80
2017-11-10T07:28:24.352Z,29.73
2017-11-10T07:30:51.977Z,37.10
2017-11-10T07:33:19.598Z,37.03
2017-11-10T07:35:47.340Z,39.83
2017-11-10T07:38:14.956Z,57.63
2017-11-10T07:40:42.584Z,30.93
2017-11-10T07:43:10.320Z,29.50
2017-11-10T07:45:37.954Z,47.93
2017-11-10T07:48:05.646Z,33.27
2017-11-10T07:50:33.320Z,35.43
2017-11-10T07:53:00.953Z,35.27
2017-11-10T07:55:28.617Z,28.97
2017-11-10T07:57:56.380Z,39.50
2017-11-10T08:00:24.096Z,27.90
2017-11-10T08:02:51.752Z,30.83
2017-11-10T08:05:19.484Z,36.13
2017-11-10T08:07:47.166Z,32.90
2017-11-10T08:10:14.836Z,52.63
2017-11-10T08:12:42.761Z,33.40
2017-11-10T08:15:10.767Z,31.83
2017-11-10T08:17:38.595Z,33.03
2017-11-10T08:20:07.101Z,46.90
2017-11-10T08:22:34.786Z,30.53
2017-11-10T08:25:02.413Z,35.80
2017-11-10T08:27:30.088Z,40.50
2017-11-10T08:29:57.771Z,31.40
2017-11-10T08:32:25.418Z,33.30
2017-11-10T08:34:53.119Z,39.17
2017-11-10T08:37:20.788Z,65.20
2017-11-10T08:39:48.489Z,40.50
2017-11-10T08:42:16.185Z,33.30
2017-11-10T08:44:43.812Z,33.87
2017-11-10T08:47:11.498Z,40.53
2017-11-10T08:49:39.176Z,46.93
2017-11-10T08:52:06.976Z,39.17
2017-11-10T08:54:34.600Z,32.40
2017-11-10T08:57:02.276Z,42.77
2017-11-10T08:59:29.965Z,31.80
2017-11-10T09:01:57.711Z,34.80
2017-11-10T09:04:25.429Z,34.63
2017-11-10T09:06:53.121Z,26.63
2017-11-10T09:09:20.859Z,38.63
2017-11-10T09:11:48.536Z,33.17
2017-11-10T09:14:16.244Z,29.83
2017-11-10T09:16:43.875Z,38.10
2017-11-10T09:19:11.604Z,41.03
2017-11-10T09:21:39.361Z,54.13
2017-11-10T09:24:07.043Z,31.30
2017-11-10T09:26:34.873Z,33.70
2017-11-10T09:32:10.173Z,46.70
2017-11-10T09:34:37.868Z,31.93
2017-11-10T09:40:19.017Z,41.03
2017-11-10T09:45:54.595Z,37.00
2017-11-10T09:48:29.872Z,28.40
2017-11-10T09:51:03.117Z,32.80
2017-11-10T09:53:36.248Z,33.80
2017-11-10T09:56:18.958Z,40.63
2017-11-10T10:02:09.147Z,29.90
2017-11-10T10:04:42.512Z,64.70
2017-11-10T10:10:12.017Z,51.27
2017-11-10T10:16:04.284Z,29.73
2017-11-10T10:18:47.493Z,40.20
2017-11-10T10:21:20.725Z,33.77
2017-11-10T10:23:49.504Z,34.13
2017-11-10T10:26:18.119Z,29.23
2017-11-10T10:28:46.573Z,30.60
2017-11-10T10:31:14.198Z,43.03
2017-11-10T10:33:41.828Z,31.20
2017-11-10T10:36:10.229Z,33.20
2017-11-10T10:38:37.918Z,46.33
2017-11-10T10:41:05.565Z,27.80
2017-11-10T10:43:33.253Z,44.00
2017-11-10T10:46:00.888Z,34.63
2017-11-10T10:48:28.524Z,32.37
2017-11-10T10:50:56.221Z,34.93
2017-11-10T10:53:23.906Z,49.53
2017-11-10T10:55:51.593Z,36.03
2017-11-10T10:58:20.056Z,34.37
2017-11-10T11:00:47.777Z,32.83
2017-11-10T11:03:15.416Z,35.13
2017-11-10T11:05:43.173Z,36.53
2017-11-10T11:08:10.796Z,31.47
2017-11-10T11:10:38.666Z,39.17
2017-11-10T11:13:06.500Z,38.83
2017-11-10T11:15:34.279Z,42.60
2017-11-10T11:18:01.899Z,49.13
2017-11-10T11:20:29.669Z,40.63
2017-11-10T11:22:57.359Z,43.27
2017-11-10T11:25:24.996Z,45.07
2017-11-10T11:27:52.672Z,41.83
2017-11-10T11:30:20.287Z,31.90
2017-11-10T11:32:47.918Z,40.47
2017-11-10T11:35:15.701Z,35.50
2017-11-10T11:37:43.332Z,29.93
2017-11-10T11:40:11.019Z,33.17
2017-11-10T11:42:38.700Z,36.73
2017-11-10T11:45:06.418Z,58.73
2017-11-10T11:47:34.124Z,34.00
2017-11-10T11:50:01.808Z,34.00
2017-11-10T11:52:29.456Z,26.50
2017-11-10T11:54:57.083Z,44.60
2017-11-10T11:57:24.756Z,35.07
2017-11-10T11:59:52.381Z,31.30
2017-11-10T12:02:20.037Z,33.53
2017-11-10T12:04:47.704Z,31.90
2017-11-10T12:07:15.325Z,32.67
2017-11-10T12:09:43.019Z,28.70
2017-11-10T12:12:10.736Z,33.30
2017-11-10T12:14:38.357Z,35.90
2017-11-10T12:17:06.216Z,31.50
2017-11-10T12:19:33.944Z,39.33
2017-11-10T12:22:01.734Z,35.50
2017-11-10T12:24:29.481Z,42.63
2017-11-10T12:26:57.220Z,39.33
2017-11-10T12:29:24.933Z,41.10
2017-11-10T12:31:52.632Z,34.80
2017-11-10T12:34:20.337Z,36.63
2017-11-10T12:36:48.197Z,34.93
2017-11-10T12:39:15.817Z,29.03
2017-11-10T12:41:43.736Z,30.33
2017-11-10T12:44:11.369Z,32.03
2017-11-10T12:46:39.006Z,33.33
2017-11-10T12:49:06.717Z,38.03
2017-11-10T12:51:35.769Z,39.23
2017-11-10T12:54:04.248Z,28.27
2017-11-10T12:56:32.237Z,32.53
2017-11-10T12:59:00.068Z,32.23
2017-11-10T13:01:27.981Z,31.37
2017-11-10T13:03:55.669Z,32.73
2017-11-10T13:06:23.349Z,29.70
2017-11-10T13:08:51.029Z,36.43
2017-11-10T13:11:18.773Z,48.77
2017-11-10T13:13:46.464Z,31.70
2017-11-10T13:16:14.220Z,39.47
2017-11-10T13:18:42.670Z,37.60
2017-11-10T13:21:11.089Z,35.63
2017-11-10T13:23:38.781Z,31.40
2017-11-10T13:26:06.568Z,35.50
2017-11-10T13:28:34.262Z,36.47
2017-11-10T13:31:01.954Z,36.70
2017-11-10T13:33:29.633Z,42.53
2017-11-10T13:35:57.348Z,32.43
2017-11-10T13:38:25.018Z,30.47
2017-11-10T13:40:52.691Z,42.57
2017-11-10T13:43:20.368Z,43.50
2017-11-10T13:45:48.344Z,30.40
2017-11-10T13:48:16.021Z,34.60
2017-11-10T13:50:43.647Z,38.30
2017-11-10T13:53:11.416Z,39.40
2017-11-10T13:55:39.281Z,47.63
2017-11-10T13:58:06.909Z,42.97
2017-11-10T14:00:34.604Z,37.07
2017-11-10T14:03:02.330Z,43.20
2017-11-10T14:05:30.057Z,38.00
2017-11-10T14:07:57.869Z,39.37
2017-11-10T14:10:25.645Z,42.40
2017-11-10T14:12:53.333Z,37.57
2017-11-10T14:15:20.974Z,36.43
2017-11-10T14:17:48.828Z,32.23
2017-11-10T14:20:16.520Z,36.27
2017-11-10T14:22:44.144Z,32.67
2017-11-10T14:25:11.873Z,34.30
2017-11-10T14:27:39.509Z,37.07
2017-11-10T14:30:10.056Z,32.17
2017-11-10T14:32:37.717Z,37.47
2017-11-10T14:35:05.341Z,35.17
2017-11-10T14:37:32.969Z,41.17
2017-11-10T14:40:00.713Z,40.40
2017-11-10T14:42:28.333Z,36.47
2017-11-10T14:44:56.084Z,39.40
2017-11-10T14:47:23.772Z,38.37
2017-11-10T14:49:51.392Z,41.43
2017-11-10T14:52:19.114Z,40.97
2017-11-10T14:54:46.788Z,44.70
2017-11-10T14:57:14.550Z,44.10
2017-11-10T14:59:42.250Z,48.87
2017-11-10T15:02:11.061Z,44.37
2017-11-10T15:04:38.854Z,78.00
2017-11-10T15:07:13.552Z,93.00
2017-11-10T15:09:41.232Z,92.90
2017-11-10T15:12:09.209Z,99.70
2017-11-10T15:14:36.881Z,94.40
2017-11-10T15:17:04.537Z,110.23
2017-11-10T15:19:32.185Z,137.23
2017-11-10T15:21:59.889Z,126.83
2017-11-10T15:24:27.581Z,131.97
2017-11-10T15:26:55.293Z,142.87
2017-11-10T15:29:23.056Z,131.80
2017-11-10T15:31:50.800Z,124.40
2017-11-10T15:34:18.477Z,135.57
2017-11-10T15:36:46.209Z,140.27
2017-11-10T15:39:13.973Z,142.03
2017-11-10T15:41:41.605Z,114.87
2017-11-10T15:44:09.317Z,103.60
2017-11-10T15:46:37.044Z,137.13
2017-11-10T15:49:04.737Z,104.60
2017-11-10T15:51:32.407Z,108.90
2017-11-10T15:54:00.089Z,102.73
2017-11-10T15:56:27.877Z,117.23
2017-11-10T15:58:55.577Z,121.47
2017-11-10T16:01:23.204Z,104.37
2017-11-10T16:03:52.243Z,99.07
2017-11-10T16:06:19.947Z,102.97
2017-11-10T16:08:47.579Z,91.53
2017-11-10T16:11:15.421Z,92.10
2017-11-10T16:13:43.425Z,97.77
2017-11-10T16:16:11.101Z,88.50
2017-11-10T16:18:38.896Z,104.60
2017-11-10T16:21:06.621Z,108.13
2017-11-10T16:23:34.302Z,103.37
2017-11-10T16:26:01.965Z,104.80
2017-11-10T16:28:29.729Z,112.13
2017-11-10T16:30:57.388Z,104.17
2017-11-10T16:33:25.004Z,88.63
2017-11-10T16:35:52.680Z,95.93
2017-11-10T16:38:20.297Z,97.37
2017-11-10T16:40:47.915Z,115.00
2017-11-10T16:43:15.576Z,92.17
2017-11-10T16:45:43.414Z,93.27
2017-11-10T16:48:11.112Z,100.80
2017-11-10T16:50:38.872Z,119.00
2017-11-10T16:53:06.570Z,112.50
2017-11-10T16:55:34.287Z,120.03
2017-11-10T16:58:01.964Z,130.77
2017-11-10T17:00:29.691Z,158.03
2017-11-10T17:02:57.327Z,149.33
2017-11-10T17:05:25.025Z,153.17
2017-11-10T17:07:52.733Z,146.40
2017-11-10T17:10:20.472Z,167.10
2017-11-10T17:12:48.227Z,135.20
2017-11-10T17:15:15.852Z,152.33
2017-11-10T17:17:43.480Z,143.47
2017-11-10T17:20:11.238Z,157.03
2017-11-10T17:22:39.104Z,168.33
2017-11-10T17:25:06.789Z,154.80
2017-11-10T17:27:34.512Z,190.40
2017-11-10T17:30:02.224Z,219.23
2017-11-10T17:32:29.946Z,268.57
2017-11-10T17:34:57.632Z,249.00
2017-11-10T17:37:25.281Z,209.17
2017-11-10T17:39:52.907Z,151.10
2017-11-10T17:42:20.648Z,141.20
2017-11-10T17:44:48.323Z,151.20
2017-11-10T17:47:16.013Z,145.73
2017-11-10T17:49:43.801Z,152.47
2017-11-10T17:52:11.565Z,158.87
2017-11-10T17:54:39.272Z,170.53
2017-11-10T17:57:07.036Z,153.60
2017-11-10T17:59:34.684Z,152.67
2017-11-10T18:02:02.300Z,155.83
2017-11-10T18:04:30.120Z,147.97
2017-11-10T18:06:57.744Z,151.70
2017-11-10T18:09:25.446Z,166.30
2017-11-10T18:11:53.119Z,198.73
2017-11-10T18:14:20.820Z,183.53
2017-11-10T18:16:48.456Z,178.20
2017-11-10T18:19:16.196Z,190.17
2017-11-10T18:21:43.966Z,247.17
2017-11-10T18:24:11.641Z,153.27
2017-11-10T18:26:39.320Z,164.57
2017-11-10T18:29:07.000Z,181.17
2017-11-10T18:31:34.818Z,150.13
2017-11-10T18:34:02.500Z,147.60
2017-11-10T18:36:30.185Z,165.40
2017-11-10T18:38:57.820Z,143.47
2017-11-10T18:41:25.500Z,132.67
2017-11-10T18:43:53.180Z,122.33
2017-11-10T18:46:20.979Z,125.63
2017-11-10T18:48:54.427Z,123.50
2017-11-10T18:51:22.114Z,92.93
2017-11-10T18:53:49.828Z,100.20
2017-11-10T18:56:17.652Z,106.50
2017-11-10T18:58:45.474Z,103.20
2017-11-10T19:01:13.129Z,107.80
2017-11-10T19:03:40.855Z,95.53
2017-11-10T19:06:08.664Z,98.80
2017-11-10T19:08:36.356Z,113.93
2017-11-10T19:11:04.094Z,105.63
2017-11-10T19:13:31.791Z,110.77
2017-11-10T19:15:59.491Z,120.70
2017-11-10T19:18:27.184Z,114.53
2017-11-10T19:20:54.969Z,112.70
2017-11-10T19:23:22.705Z,102.13
2017-11-10T19:25:50.403Z,115.67
2017-11-10T19:28:18.028Z,140.07
2017-11-10T19:30:45.732Z,148.97
2017-11-10T19:33:13.416Z,102.10
2017-11-10T19:35:41.104Z,107.77
2017-11-10T19:38:08.723Z,117.83
2017-11-10T19:40:36.486Z,115.80
2017-11-10T19:43:04.167Z,98.50
2017-11-10T19:45:32.004Z,81.73
2017-11-10T19:47:59.700Z,78.77
2017-11-10T19:50:27.339Z,82.90
2017-11-10T19:52:55.029Z,97.90
2017-11-10T19:55:22.766Z,94.97
2017-11-10T19:57:50.417Z,133.67
2017-11-10T20:00:18.052Z,175.20
2017-11-10T20:02:45.825Z,219.40
2017-11-10T20:05:13.453Z,184.10
2017-11-10T20:07:41.140Z,107.10
2017-11-10T20:10:08.933Z,85.07
2017-11-10T20:12:36.651Z,74.00
2017-11-10T20:15:04.283Z,72.87
2017-11-10T20:17:31.968Z,79.47
2017-11-10T20:19:59.748Z,85.33
2017-11-10T20:22:27.437Z,180.53
2017-11-10T20:24:55.228Z,181.47
2017-11-10T20:27:22.940Z,179.93
2017-11-10T20:29:50.652Z,154.80
2017-11-10T20:32:19.361Z,148.83
2017-11-10T20:34:47.089Z,113.90
2017-11-10T20:37:14.714Z,80.67
2017-11-10T20:39:42.449Z,72.60
2017-11-10T20:42:10.147Z,71.10
2017-11-10T20:44:37.821Z,68.53
2017-11-10T20:47:05.552Z,62.83
2017-11-10T20:49:33.288Z,56.33
2017-11-10T20:52:00.912Z,60.40
2017-11-10T20:54:28.663Z,54.17
2017-11-10T20:56:56.279Z,52.30
2017-11-10T20:59:23.904Z,72.53
2017-11-10T21:01:52.469Z,56.90
2017-11-10T21:04:20.108Z,61.37
2017-11-10T21:06:47.729Z,60.67
2017-11-10T21:09:15.404Z,53.30
2017-11-10T21:11:43.118Z,60.40
2017-11-10T21:14:10.744Z,63.20
2017-11-10T21:16:38.480Z,65.80
2017-11-10T21:19:06.157Z,67.70
2017-11-10T21:21:33.879Z,64.33
2017-11-10T21:24:01.600Z,67.73
2017-11-10T21:26:29.220Z,70.03
2017-11-10T21:28:56.837Z,70.77
2017-11-10T21:31:24.513Z,73.77
2017-11-10T21:33:52.196Z,81.07
2017-11-10T21:36:19.900Z,71.57
2017-11-10T21:38:47.577Z,88.50
2017-11-10T21:41:15.380Z,84.00
2017-11-10T21:43:43.006Z,84.73
2017-11-10T21:46:10.727Z,90.20
2017-11-10T21:48:38.518Z,68.33
2017-11-10T21:51:06.204Z,85.60
2017-11-10T21:53:33.877Z,74.97
2017-11-10T21:56:01.568Z,325.13
2017-11-10T21:58:29.382Z,111.07
2017-11-10T22:00:57.121Z,98.87
2017-11-10T22:03:24.896Z,115.80
2017-11-10T22:05:52.524Z,103.93
2017-11-10T22:08:20.201Z,83.47
2017-11-10T22:10:47.898Z,90.17
2017-11-10T22:13:15.578Z,99.20
2017-11-10T22:15:43.314Z,100.93
2017-11-10T22:18:10.996Z,89.57
2017-11-10T22:20:38.653Z,82.53
2017-11-10T22:23:06.432Z,74.13
2017-11-10T22:25:34.081Z,88.20
2017-11-10T22:28:01.969Z,73.73
2017-11-10T22:30:29.640Z,91.23
2017-11-10T22:32:57.376Z,73.67
2017-11-10T22:35:25.061Z,77.00
2017-11-10T22:37:52.812Z,80.60
2017-11-10T22:40:20.431Z,74.03
2017-11-10T22:42:48.109Z,75.30
2017-11-10T22:45:15.788Z,72.93
2017-11-10T22:47:43.404Z,69.00
2017-11-10T22:50:11.124Z,61.80
2017-11-10T22:52:38.824Z,80.33
2017-11-10T22:55:06.453Z,72.83
2017-11-10T22:57:34.173Z,63.60
2017-11-10T23:00:02.509Z,71.40
2017-11-10T23:02:30.141Z,65.40
2017-11-10T23:04:57.901Z,67.93
2017-11-10T23:07:25.560Z,74.30
2017-11-10T23:09:53.225Z,69.87
2017-11-10T23:12:20.949Z,70.93
2017-11-10T23:14:48.671Z,76.37
2017-11-10T23:17:16.288Z,78.23
2017-11-10T23:19:44.005Z,72.40
2017-11-10T23:22:12.112Z,63.50
2017-11-10T23:24:39.729Z,69.13
2017-11-10T23:27:07.412Z,70.20
2017-11-10T23:29:35.152Z,72.67
2017-11-10T23:32:02.773Z,94.33
2017-11-10T23:34:30.454Z,106.43
2017-11-10T23:36:58.138Z,95.13
2017-11-10T23:39:25.766Z,88.07
2017-11-10T23:41:54.202Z,68.07
2017-11-10T23:44:21.878Z,77.63
2017-11-10T23:46:49.494Z,79.60
2017-11-10T23:49:17.168Z,64.13
2017-11-10T23:51:44.850Z,75.70
2017-11-10T23:54:12.472Z,70.03
2017-11-10T23:56:40.085Z,67.43
2017-11-10T23:59:07.747Z,60.97
